Time;durP1;ratioP1;P1;durP2;ratioP2;P2;SDS_P1;SDS_P2;PMS_P1;PMS_P2;Temp;Humidity;BMP_temperature;BMP_pressure;BME280_temperature;BME280_humidity;BME280_pressure;Samples;Min_cycle;Max_cycle;Signal;HPM_P1;HPM_P2
2022/09/19 08:44:42;;;;;;;16.17;1.55;;;;;;;9.58;84.67;96972.47;2075613;28;20571;-68
2022/09/19 08:58:17;;;;;;;16.23;2.27;;;;;;;9.75;82.99;96975.31;2066303;27;1264396;-68
2022/09/19 09:04:30;;;;;;;16.00;1.85;;;;;;;9.90;81.21;96986.97;2104213;27;20566;-67
2022/09/19 09:05:56;;;;;;;9.35;1.90;;;;;;;9.78;82.76;96984.78;2103870;28;20848;-67
2022/09/19 09:14:17;;;;;;;16.15;2.15;;;;;;;9.87;83.36;96994.06;2101220;27;20585;-67
2022/09/19 09:20:04;;;;;;;17.52;2.20;;;;;;;10.12;82.32;97000.06;2087116;27;21099;-67
2022/09/19 09:25:41;;;;;;;14.13;2.10;;;;;;;10.32;80.19;96981.94;2088224;28;20572;-68
2022/09/19 09:30:25;;;;;;;15.53;2.17;;;;;;;10.46;79.55;96984.91;2064434;27;1271445;-68
2022/09/19 09:31:40;;;;;;;10.43;2.50;;;;;;;10.73;79.59;96993.41;2104419;28;20728;-68
2022/09/19 09:32:48;;;;;;;17.02;1.77;;;;;;;10.85;79.01;97001.69;2103923;28;20285;-68
2022/09/19 09:37:46;;;;;;;8.73;1.50;;;;;;;11.72;76.21;96996.34;2085297;28;20569;-69
2022/09/19 09:38:59;;;;;;;6.22;1.10;;;;;;;11.71;76.00;96995.47;2080966;28;20212;-69
2022/09/19 10:08:29;;;;;;;8.70;1.95;;;;;;;11.10;76.47;96973.63;2082409;27;20561;-67
2022/09/19 10:14:01;;;;;;;10.90;2.08;;;;;;;11.28;76.87;96992.91;2075715;28;20554;-67
2022/09/19 10:15:16;;;;;;;6.00;1.63;;;;;;;11.46;75.95;96982.59;2065121;28;20635;-67
2022/09/19 10:23:02;;;;;;;4.50;1.83;;;;;;;13.98;67.84;97001.31;2061646;28;20280;-68
2022/09/19 10:24:40;;;;;;;10.57;1.50;;;;;;;13.29;68.41;96992.56;2055315;28;20294;-67
2022/09/19 10:25:44;;;;;;;10.48;1.45;;;;;;;12.92;69.79;96997.00;2069807;28;20281;-67
2022/09/19 10:26:46;;;;;;;8.63;1.40;;;;;;;12.69;71.18;96950.00;2063210;28;20920;-67
2022/09/19 10:27:49;;;;;;;5.93;1.30;;;;;;;12.74;71.35;96987.31;2070547;28;20708;-67
2022/09/19 10:40:23;;;;;;;14.55;1.73;;;;;;;12.97;72.02;96995.00;2068753;28;1249636;-68
2022/09/19 10:41:28;;;;;;;8.27;1.38;;;;;;;13.37;70.50;96987.81;2117628;28;20615;-67
2022/09/19 10:42:36;;;;;;;4.30;1.45;;;;;;;13.59;70.30;96992.81;2114891;28;20240;-67
2022/09/19 10:43:44;;;;;;;7.18;1.60;;;;;;;13.45;69.26;96987.44;2115160;28;20198;-67
2022/09/19 10:44:53;;;;;;;8.75;1.80;;;;;;;13.25;69.98;96991.03;2104466;27;20253;-67
2022/09/19 10:45:54;;;;;;;8.43;1.70;;;;;;;13.27;69.68;96986.53;2117013;27;20201;-67
2022/09/19 10:47:01;;;;;;;6.53;1.20;;;;;;;12.87;69.86;96994.59;2116613;28;20189;-68
2022/09/19 10:48:26;;;;;;;7.03;1.05;;;;;;;13.07;70.28;97001.50;2114825;28;20202;-67
2022/09/19 10:49:36;;;;;;;4.38;1.10;;;;;;;13.63;67.64;96986.47;2104794;27;20294;-67
2022/09/19 10:50:42;;;;;;;4.70;1.52;;;;;;;13.65;66.14;96989.00;2114234;28;20280;-67
2022/09/19 11:03:25;;;;;;;2.67;1.08;;;;;;;14.81;64.39;96990.75;2124241;27;20176;-68
2022/09/19 11:04:26;;;;;;;11.73;1.50;;;;;;;14.55;65.31;96987.75;2108157;28;20259;-70
2022/09/19 11:05:32;;;;;;;9.23;1.50;;;;;;;14.53;65.49;96992.25;2118715;28;20898;-69
2022/09/19 11:06:56;;;;;;;5.90;1.30;;;;;;;14.60;65.49;96990.97;2120015;27;20227;-69
2022/09/19 11:07:59;;;;;;;7.47;1.30;;;;;;;14.85;64.85;96987.00;2121969;27;20201;-68
2022/09/19 11:09:20;;;;;;;6.45;1.48;;;;;;;15.28;64.85;96999.47;2121749;27;20198;-69
2022/09/19 11:10:33;;;;;;;8.60;1.00;;;;;;;16.18;60.28;96992.41;2120935;27;20337;-69
2022/09/19 11:11:48;;;;;;;8.35;1.50;;;;;;;15.73;61.76;96983.69;2123254;27;20282;-69
2022/09/19 11:13:04;;;;;;;7.43;1.33;;;;;;;15.38;62.75;96995.38;2120962;27;20500;-69
2022/09/19 11:14:31;;;;;;;3.97;1.23;;;;;;;14.76;63.47;96992.78;2120354;27;20280;-69
2022/09/19 11:15:58;;;;;;;5.55;1.42;;;;;;;14.53;64.09;96987.00;2121220;27;20194;-69
2022/09/19 11:17:12;;;;;;;3.05;0.82;;;;;;;14.19;65.83;96994.94;2111138;27;20813;-69
2022/09/19 11:18:38;;;;;;;2.83;1.23;;;;;;;14.00;65.77;96994.22;2113987;28;20648;-69
2022/09/19 11:19:48;;;;;;;4.70;1.05;;;;;;;13.84;67.08;97005.53;2104939;28;20222;-69
2022/09/19 11:27:44;;;;;;;4.53;1.00;;;;;;;14.48;66.22;96999.53;2124065;27;20296;-68
2022/09/19 11:29:21;;;;;;;6.95;1.30;;;;;;;14.12;66.99;97011.94;2121148;27;20280;-68
2022/09/19 11:30:26;;;;;;;7.60;1.00;;;;;;;13.85;67.24;97006.34;2131326;27;20228;-69
2022/09/19 11:45:59;;;;;;;9.82;1.05;;;;;;;17.13;58.58;97001.34;2065362;28;1272481;-67
2022/09/19 11:47:28;;;;;;;4.97;1.00;;;;;;;16.06;60.93;97004.53;2116436;28;20510;-66
2022/09/19 11:49:02;;;;;;;7.57;2.25;;;;;;;15.71;62.23;96994.31;2114250;28;20277;-66
2022/09/19 11:50:20;;;;;;;8.55;1.50;;;;;;;15.13;64.10;96991.53;2117020;28;20225;-66
2022/09/19 11:51:50;;;;;;;10.00;1.08;;;;;;;14.91;64.82;96996.34;2108178;28;20293;-68
2022/09/19 11:53:13;;;;;;;5.72;1.25;;;;;;;14.77;65.88;97002.38;2100980;28;20209;-68
2022/09/19 11:54:34;;;;;;;8.25;2.38;;;;;;;14.99;65.44;96997.56;2091987;28;20230;-68
2022/09/19 11:56:26;;;;;;;10.40;1.50;;;;;;;15.31;64.79;96996.66;2095970;28;20207;-68
2022/09/19 11:57:55;;;;;;;7.63;1.40;;;;;;;15.71;63.48;96999.59;2097766;28;20229;-68
2022/09/19 11:59:13;;;;;;;13.15;1.42;;;;;;;15.10;63.24;96994.34;2113972;28;20206;-69
2022/09/19 12:00:17;;;;;;;6.95;1.50;;;;;;;14.74;64.11;96990.25;2115908;28;20225;-69
2022/09/19 12:01:25;;;;;;;4.00;1.08;;;;;;;14.73;65.11;96993.81;2116213;28;20316;-69
2022/09/19 12:02:50;;;;;;;7.60;1.38;;;;;;;14.69;65.59;97000.19;2109578;28;20321;-69
2022/09/19 12:04:28;;;;;;;8.55;1.60;;;;;;;14.39;64.46;96979.88;2111905;28;20714;-69
2022/09/19 12:05:35;;;;;;;5.85;1.30;;;;;;;14.42;65.55;96990.19;2114512;28;20263;-69
2022/09/19 12:06:54;;;;;;;4.75;0.90;;;;;;;14.30;65.50;96989.09;2117853;28;20284;-69
2022/09/19 12:12:11;;;;;;;7.72;1.65;;;;;;;13.90;68.43;96993.84;2086213;28;20582;-67
2022/09/19 12:13:36;;;;;;;5.95;1.40;;;;;;;13.56;68.10;96982.50;2080830;28;20223;-67
2022/09/19 12:18:43;;;;;;;4.97;1.20;;;;;;;13.52;69.19;96980.94;2083055;28;20573;-67
2022/09/19 12:20:11;;;;;;;8.48;1.50;;;;;;;13.37;68.89;96983.41;2074018;28;20647;-67
2022/09/19 12:27:11;;;;;;;9.75;1.30;;;;;;;13.03;71.09;96981.59;2092846;27;20546;-66
2022/09/19 12:32:31;;;;;;;3.88;1.10;;;;;;;12.90;69.73;96971.72;2100958;27;20585;-67
2022/09/19 12:33:40;;;;;;;5.13;1.10;;;;;;;12.70;69.46;96970.06;2097855;28;20360;-68
2022/09/19 12:39:02;;;;;;;7.43;1.50;;;;;;;13.21;69.83;96964.09;2103670;27;20549;-69
2022/09/19 12:45:22;;;;;;;9.82;1.20;;;;;;;12.93;67.45;96960.22;2078400;28;20209;-69
2022/09/19 12:46:43;;;;;;;6.22;1.42;;;;;;;13.16;66.89;96964.31;2078160;28;20193;-69
2022/09/19 12:48:07;;;;;;;6.65;1.10;;;;;;;13.40;66.81;96964.06;2078970;28;20298;-69
2022/09/19 12:49:16;;;;;;;16.40;7.25;;;;;;;13.45;66.33;96962.03;2070067;28;20227;-70
2022/09/19 12:50:44;;;;;;;13.90;3.50;;;;;;;13.45;65.84;96963.81;2086443;28;20200;-70
2022/09/19 12:52:04;;;;;;;12.35;3.88;;;;;;;14.01;65.48;96969.66;2072989;28;20205;-69
2022/09/19 12:53:22;;;;;;;12.48;4.18;;;;;;;14.03;63.79;96958.13;2077743;28;20682;-68
2022/09/19 12:54:39;;;;;;;5.53;1.65;;;;;;;14.16;64.57;96965.38;2070776;28;20222;-69
2022/09/19 12:56:07;;;;;;;23.70;2.22;;;;;;;14.08;64.33;96952.66;2086418;28;20294;-69
2022/09/19 12:57:23;;;;;;;17.42;2.10;;;;;;;14.50;63.57;96968.75;2077871;28;20220;-69
2022/09/19 12:58:32;;;;;;;11.45;2.20;;;;;;;14.32;63.30;96955.72;2078336;28;20219;-67
2022/09/19 12:59:37;;;;;;;7.15;1.75;;;;;;;14.54;63.01;96955.38;2069020;28;20717;-68
2022/09/19 13:00:42;;;;;;;12.68;1.42;;;;;;;14.84;62.80;96954.63;2079412;28;20197;-67
2022/09/19 13:01:57;;;;;;;9.98;1.27;;;;;;;14.82;61.78;96955.63;2078523;28;20236;-66
2022/09/19 13:03:08;;;;;;;8.38;1.40;;;;;;;14.36;63.23;96938.03;2078063;28;20223;-66
2022/09/19 13:04:35;;;;;;;6.63;1.27;;;;;;;14.66;62.28;96955.66;2085848;28;20207;-66
2022/09/19 13:05:46;;;;;;;5.70;1.65;;;;;;;14.60;62.93;96956.81;2082451;28;20800;-66
2022/09/19 13:06:51;;;;;;;11.85;1.65;;;;;;;14.12;62.72;96953.31;2086265;28;20834;-66
2022/09/19 13:07:59;;;;;;;5.97;1.00;;;;;;;14.07;62.77;96953.56;2074596;28;20667;-66
2022/09/19 13:23:30;;;;;;;4.05;1.17;;;;;;;13.43;64.84;96931.56;2091211;28;20249;-65
2022/09/19 13:24:56;;;;;;;5.32;1.20;;;;;;;13.78;64.57;96948.09;2080988;28;20689;-65
2022/09/19 13:26:24;;;;;;;5.05;1.08;;;;;;;14.90;61.38;96945.50;2084964;28;20206;-65
2022/09/19 13:27:26;;;;;;;5.22;1.00;;;;;;;15.16;60.04;96941.38;2084001;28;20288;-65
2022/09/19 13:28:34;;;;;;;7.03;1.00;;;;;;;15.18;59.67;96936.03;2086445;28;20961;-66
2022/09/19 13:29:35;;;;;;;4.10;1.30;;;;;;;15.05;60.27;96940.31;2075456;28;20311;-65
2022/09/19 13:30:48;;;;;;;7.07;1.15;;;;;;;15.23;58.98;96941.88;2085154;28;20191;-65
2022/09/19 13:31:52;;;;;;;6.40;1.10;;;;;;;15.92;57.84;96946.59;2085126;28;20283;-65
2022/09/19 13:32:55;;;;;;;7.85;1.08;;;;;;;16.48;55.12;96939.56;2086020;28;20205;-65
2022/09/19 13:39:24;;;;;;;2.83;1.10;;;;;;;15.79;56.54;96943.81;2078683;28;20715;-65
2022/09/19 13:40:39;;;;;;;4.22;1.00;;;;;;;15.46;58.01;96937.03;2075834;28;20308;-65
2022/09/19 13:41:53;;;;;;;8.15;1.10;;;;;;;15.29;59.03;96936.25;2077522;28;20213;-65
2022/09/19 13:43:18;;;;;;;7.47;1.27;;;;;;;15.27;60.33;96938.09;2076247;28;20356;-65
2022/09/19 13:44:36;;;;;;;3.13;1.38;;;;;;;15.50;59.05;96942.03;2070794;28;20201;-65
2022/09/19 13:57:28;;;;;;;3.95;1.05;;;;;;;16.12;56.64;96929.53;2077213;28;20177;-65
2022/09/19 13:58:36;;;;;;;5.72;1.10;;;;;;;15.99;57.06;96926.84;2077914;28;20223;-66
2022/09/19 13:59:44;;;;;;;6.40;1.00;;;;;;;15.86;56.14;96925.88;2071882;28;20327;-65
2022/09/19 14:01:27;;;;;;;5.68;1.05;;;;;;;16.38;54.12;96924.41;2083616;28;20220;-66
2022/09/19 14:02:41;;;;;;;2.38;1.02;;;;;;;16.53;53.67;96922.59;2077433;28;20616;-65
2022/09/19 14:27:03;;;;;;;13.15;1.42;;;;;;;15.91;56.57;96932.59;2082667;28;20710;-66
2022/09/19 14:28:24;;;;;;;5.05;1.20;;;;;;;15.86;57.44;96937.28;2076927;28;20243;-66
2022/09/19 14:52:30;;;;;;;7.78;1.83;;;;;;;15.26;60.01;96893.47;2093039;28;20589;-65
2022/09/19 14:53:36;;;;;;;3.15;1.10;;;;;;;15.83;58.96;96943.59;2084186;28;20835;-67
2022/09/19 14:54:44;;;;;;;5.57;1.20;;;;;;;16.06;58.46;96919.38;2077809;28;20812;-67
2022/09/19 14:55:49;;;;;;;11.50;1.30;;;;;;;16.08;58.35;96942.06;2086731;28;20276;-67
2022/09/19 14:57:00;;;;;;;11.45;1.15;;;;;;;16.01;57.78;96909.16;2079555;28;20766;-67
2022/09/19 14:58:01;;;;;;;7.63;1.20;;;;;;;15.95;58.02;96928.81;2078838;28;20609;-66
2022/09/19 15:06:16;;;;;;;5.82;1.35;;;;;;;14.19;61.91;96944.19;2083718;28;20587;-66
2022/09/19 15:07:26;;;;;;;5.20;1.00;;;;;;;14.01;62.34;96946.03;2080184;28;20195;-66
2022/09/19 15:08:30;;;;;;;5.07;1.27;;;;;;;14.02;62.42;96938.06;2078456;28;20227;-66
2022/09/19 15:21:21;;;;;;;9.70;1.40;;;;;;;13.89;64.10;96931.78;2073437;27;1226903;-66
2022/09/19 15:22:27;;;;;;;13.93;1.55;;;;;;;14.15;63.39;96938.25;2113175;28;20287;-66
2022/09/19 15:23:34;;;;;;;3.65;1.20;;;;;;;15.01;61.67;96937.84;2111791;28;20735;-66
2022/09/19 15:24:36;;;;;;;8.23;2.05;;;;;;;15.16;60.45;96917.72;2091408;28;20913;-66
2022/09/19 15:25:40;;;;;;;11.35;1.27;;;;;;;15.80;59.70;96935.00;2095050;28;20206;-66
2022/09/19 15:38:18;;;;;;;4.65;1.13;;;;;;;15.96;57.52;96882.25;2087877;28;20212;-69
2022/09/19 15:39:19;;;;;;;13.82;2.10;;;;;;;15.67;58.39;96927.00;2080513;28;20204;-69
2022/09/19 15:40:24;;;;;;;12.07;2.58;;;;;;;14.90;60.00;96897.34;2095601;28;20199;-69
2022/09/19 15:57:29;;;;;;;9.13;1.70;;;;;;;13.20;69.06;96951.91;2109513;27;20563;-68
2022/09/19 16:25:52;;;;;;;7.90;1.33;;;;;;;11.73;79.23;96961.38;2079877;27;20537;-69
2022/09/19 16:26:58;;;;;;;1.40;0.70;;;;;;;12.06;79.04;96963.44;2073082;28;20335;-70
2022/09/19 16:28:00;;;;;;;4.00;1.00;;;;;;;12.30;78.92;96968.47;2074764;28;20292;-70
2022/09/19 16:33:57;;;;;;;1.88;0.80;;;;;;;12.46;76.98;96961.59;2085187;28;20558;-70
2022/09/19 16:35:17;;;;;;;3.10;0.70;;;;;;;12.43;77.03;96964.38;2078134;28;20284;-71
2022/09/19 16:38:25;;;;;;;7.07;1.50;;;;;;;11.31;79.39;96964.94;2083918;28;20597;-69
2022/09/19 16:39:28;;;;;;;4.47;1.10;;;;;;;10.72;81.15;96964.75;2071506;28;20230;-69
2022/09/19 16:40:34;;;;;;;6.70;1.77;;;;;;;10.75;81.26;96964.63;2078191;28;20213;-69
2022/09/19 16:41:54;;;;;;;2.95;1.27;;;;;;;10.92;80.37;96962.19;2078360;28;20248;-69
2022/09/19 16:42:55;;;;;;;18.35;7.75;;;;;;;10.78;78.43;96960.13;2072623;28;20234;-68
2022/09/19 16:58:26;;;;;;;3.05;1.00;;;;;;;12.51;75.13;96967.47;2102001;27;20550;-69
2022/09/19 16:59:31;;;;;;;4.60;0.98;;;;;;;12.39;75.03;96970.66;2091739;28;20583;-70
2022/09/19 17:00:32;;;;;;;5.78;0.90;;;;;;;12.24;76.65;96967.84;2093942;28;20359;-70
2022/09/19 17:01:34;;;;;;;4.60;0.95;;;;;;;12.33;75.96;96970.94;2091323;28;20197;-70
2022/09/19 17:02:35;;;;;;;2.50;1.02;;;;;;;12.33;76.13;96973.56;2086030;28;20255;-70
